Wallkill, New York
Current Conditions -  °F | °C
As of 1:45 PM on Thursday 23 Oct 2014 (Local Time) from KSWF Reporting Station
Light Rain Light Rain  
Wind Chill: 10°   Ceiling: 8000
Heat Index: 10°   Visibility: 4mi
Dew Point:   Wind: 12mph
Humidity: 94%   Direction: 30°NNE
Pressure: 29.75"   Gusts: 23mph
Location:  41.61°N, 74.16°W
Report Text: KSWF 231745Z 03010G20KT 4SM -RA BR BKN080 OVC020 10/09 A2975
Loading
Personal Weather Stations






























Interactive Weather Map
Tropical Storm Tracking
New forecast layout! Learn more

10-Day Weather Forecast

Advertisements
Track Severe Weather on mobile